createdAt,value
2023-03-12T00:01:21.304Z,7.82
2023-03-12T00:03:50.538Z,8.00
2023-03-12T00:06:20.561Z,7.90
2023-03-12T00:08:49.233Z,6.82
2023-03-12T00:11:19.600Z,7.70
2023-03-12T00:13:52.333Z,7.63
2023-03-12T00:16:20.714Z,7.55
2023-03-12T00:18:50.818Z,8.23
2023-03-12T00:21:20.471Z,7.25
2023-03-12T00:23:49.357Z,7.50
2023-03-12T00:26:18.908Z,8.10
2023-03-12T00:28:48.755Z,8.15
2023-03-12T00:31:27.318Z,7.93
2023-03-12T00:33:56.369Z,8.32
2023-03-12T00:36:27.061Z,8.70
2023-03-12T00:38:56.299Z,8.40
2023-03-12T00:41:25.490Z,8.77
2023-03-12T00:43:53.558Z,8.77
2023-03-12T00:46:21.917Z,8.82
2023-03-12T00:48:50.106Z,8.85
2023-03-12T00:51:18.264Z,8.65
2023-03-12T00:53:46.281Z,8.88
2023-03-12T00:56:14.082Z,9.27
2023-03-12T00:58:42.894Z,9.57
2023-03-12T01:01:10.928Z,9.55
2023-03-12T01:03:39.660Z,10.02
2023-03-12T01:06:07.492Z,10.48
2023-03-12T01:08:35.417Z,10.45
2023-03-12T01:11:03.927Z,10.75
2023-03-12T01:13:31.981Z,10.55
2023-03-12T01:16:01.529Z,11.17
2023-03-12T01:18:29.750Z,10.77
2023-03-12T01:20:57.500Z,12.05
2023-03-12T01:23:25.572Z,11.23
2023-03-12T01:25:55.580Z,11.45
2023-03-12T01:28:24.485Z,11.70
2023-03-12T01:30:53.186Z,12.48
2023-03-12T01:33:22.916Z,11.45
2023-03-12T01:35:50.994Z,12.82
2023-03-12T01:38:20.904Z,12.05
2023-03-12T01:40:48.669Z,12.15
2023-03-12T01:43:35.320Z,13.15
2023-03-12T01:46:05.889Z,12.52
2023-03-12T01:48:42.901Z,13.25
2023-03-12T01:51:15.129Z,12.70
2023-03-12T01:53:46.789Z,12.47
2023-03-12T01:56:17.847Z,12.40
2023-03-12T01:58:53.400Z,12.13
2023-03-12T02:01:23.054Z,12.73
2023-03-12T02:03:53.862Z,13.13
2023-03-12T02:06:51.953Z,13.27
2023-03-12T02:09:21.606Z,12.63
2023-03-12T02:11:50.186Z,12.60
2023-03-12T02:14:18.535Z,13.25
2023-03-12T02:16:46.447Z,13.05
2023-03-12T02:19:40.130Z,12.90
2023-03-12T02:22:08.984Z,13.77
2023-03-12T02:25:03.968Z,12.80
2023-03-12T02:27:48.549Z,11.90
2023-03-12T02:30:17.749Z,13.43
2023-03-12T02:32:46.804Z,12.93
2023-03-12T02:35:16.979Z,13.05
2023-03-12T02:37:53.155Z,12.98
2023-03-12T02:40:29.954Z,12.52
2023-03-12T02:42:58.206Z,12.82
2023-03-12T02:45:26.902Z,12.20
2023-03-12T02:47:54.806Z,12.88
2023-03-12T02:50:22.838Z,13.43
2023-03-12T02:52:50.562Z,11.70
2023-03-12T02:55:18.819Z,10.88
2023-03-12T02:57:46.545Z,10.73
2023-03-12T03:00:16.439Z,10.80
2023-03-12T03:02:48.724Z,11.27
2023-03-12T03:05:17.114Z,11.93
2023-03-12T03:07:44.708Z,10.73
2023-03-12T03:10:12.949Z,10.75
2023-03-12T03:12:40.581Z,10.75
2023-03-12T03:15:09.795Z,10.65
2023-03-12T03:17:37.948Z,10.52
2023-03-12T03:20:11.098Z,10.20
2023-03-12T03:22:39.706Z,9.50
2023-03-12T03:25:09.425Z,8.73
2023-03-12T03:27:37.529Z,9.30
2023-03-12T03:30:06.178Z,9.65
2023-03-12T03:32:39.327Z,8.82
2023-03-12T03:35:07.884Z,9.10
2023-03-12T03:37:35.764Z,9.02
2023-03-12T03:40:04.181Z,8.38
2023-03-12T03:42:31.851Z,8.68
2023-03-12T03:45:00.447Z,8.07
2023-03-12T03:47:28.112Z,8.32
2023-03-12T03:49:56.125Z,8.90
2023-03-12T03:52:23.755Z,8.25
2023-03-12T03:54:51.803Z,8.70
2023-03-12T03:57:19.524Z,8.50
2023-03-12T03:59:47.812Z,8.52
2023-03-12T04:02:15.591Z,8.80
2023-03-12T04:04:43.956Z,8.70
2023-03-12T04:07:11.727Z,8.90
2023-03-12T04:09:40.934Z,9.68
2023-03-12T04:12:08.833Z,8.88
2023-03-12T04:14:43.082Z,8.90
2023-03-12T04:17:11.587Z,9.48
2023-03-12T04:19:39.612Z,8.77
2023-03-12T04:22:07.345Z,8.98
2023-03-12T04:24:35.569Z,8.50
2023-03-12T04:27:03.701Z,9.40
2023-03-12T04:29:34.038Z,8.75
2023-03-12T04:32:01.899Z,8.48
2023-03-12T04:34:30.066Z,8.60
2023-03-12T04:36:58.027Z,9.05
2023-03-12T04:39:26.338Z,8.68
2023-03-12T04:41:54.085Z,8.30
2023-03-12T04:44:22.071Z,8.65
2023-03-12T04:46:49.841Z,7.75
2023-03-12T04:49:21.386Z,8.68
2023-03-12T04:51:49.273Z,8.23
2023-03-12T04:54:17.560Z,8.65
2023-03-12T04:56:45.240Z,8.43
2023-03-12T04:59:13.658Z,7.60
2023-03-12T05:01:42.936Z,8.18
2023-03-12T05:04:17.608Z,8.32
2023-03-12T05:06:45.715Z,7.70
2023-03-12T05:09:13.759Z,7.80
2023-03-12T05:11:42.733Z,7.93
2023-03-12T05:14:13.060Z,8.27
2023-03-12T05:16:42.066Z,7.90
2023-03-12T05:19:10.258Z,8.27
2023-03-12T05:21:42.283Z,7.78
2023-03-12T05:24:11.522Z,8.32
2023-03-12T05:26:40.114Z,7.82
2023-03-12T05:29:15.201Z,7.90
2023-03-12T05:31:43.934Z,7.57
2023-03-12T05:34:13.374Z,7.55
2023-03-12T05:36:44.256Z,7.53
2023-03-12T05:39:13.940Z,8.43
2023-03-12T05:41:41.641Z,7.80
2023-03-12T05:44:17.393Z,8.18
2023-03-12T05:46:49.322Z,8.40
2023-03-12T05:49:17.899Z,8.85
2023-03-12T05:51:47.146Z,7.57
2023-03-12T05:54:17.141Z,8.13
2023-03-12T05:56:47.859Z,8.13
2023-03-12T05:59:16.002Z,8.00
2023-03-12T06:01:44.220Z,7.63
2023-03-12T06:04:12.926Z,8.27
2023-03-12T06:06:40.762Z,8.32
2023-03-12T06:09:08.936Z,7.90
2023-03-12T06:11:36.883Z,7.53
2023-03-12T06:14:05.266Z,7.25
2023-03-12T06:16:34.659Z,7.88
2023-03-12T06:19:03.823Z,7.05
2023-03-12T06:21:34.795Z,6.90
2023-03-12T06:24:04.150Z,7.07
2023-03-12T06:26:52.071Z,8.73
2023-03-12T06:29:20.057Z,8.55
2023-03-12T06:31:48.358Z,7.32
2023-03-12T06:34:16.895Z,7.03
2023-03-12T06:36:44.934Z,6.95
2023-03-12T06:39:13.218Z,6.45
2023-03-12T06:41:42.044Z,7.97
2023-03-12T06:44:10.152Z,7.35
2023-03-12T06:46:38.272Z,6.18
2023-03-12T06:49:06.393Z,6.00
2023-03-12T06:51:34.167Z,6.53
2023-03-12T06:54:02.677Z,6.10
2023-03-12T06:56:31.767Z,6.45
2023-03-12T06:58:59.913Z,6.30
2023-03-12T07:01:27.823Z,6.10
2023-03-12T07:03:56.030Z,6.25
2023-03-12T07:06:25.232Z,5.38
2023-03-12T07:08:53.489Z,5.75
2023-03-12T07:11:21.416Z,5.18
2023-03-12T07:13:49.429Z,4.95
2023-03-12T07:16:17.374Z,5.32
2023-03-12T07:18:45.322Z,4.72
2023-03-12T07:21:13.119Z,5.22
2023-03-12T07:23:41.134Z,5.82
2023-03-12T07:26:08.860Z,4.57
2023-03-12T07:28:36.889Z,4.85
2023-03-12T07:31:05.517Z,4.60
2023-03-12T07:33:34.100Z,4.47
2023-03-12T07:36:02.180Z,5.90
2023-03-12T07:38:30.792Z,5.47
2023-03-12T07:41:00.277Z,4.40
2023-03-12T07:43:28.513Z,4.95
2023-03-12T07:45:56.924Z,4.32
2023-03-12T07:48:25.058Z,4.18
2023-03-12T07:50:52.783Z,4.28
2023-03-12T07:53:21.097Z,4.38
2023-03-12T07:55:49.304Z,4.53
2023-03-12T07:58:17.942Z,4.75
2023-03-12T08:00:46.619Z,4.53
2023-03-12T08:03:15.067Z,3.63
2023-03-12T08:05:43.302Z,3.17
2023-03-12T08:08:11.493Z,3.47
2023-03-12T08:10:39.339Z,3.15
2023-03-12T08:13:07.405Z,3.30
2023-03-12T08:15:35.211Z,3.55
2023-03-12T08:18:03.334Z,3.78
2023-03-12T08:20:31.671Z,3.88
2023-03-12T08:22:59.641Z,3.25
2023-03-12T08:25:27.555Z,3.53
2023-03-12T08:27:55.686Z,3.00
2023-03-12T08:30:23.480Z,3.45
2023-03-12T08:32:51.544Z,2.83
2023-03-12T08:35:19.269Z,2.35
2023-03-12T08:37:47.216Z,2.50
2023-03-12T08:40:15.106Z,3.00
2023-03-12T08:42:45.046Z,2.83
2023-03-12T08:45:14.413Z,3.60
2023-03-12T08:47:43.649Z,3.50
2023-03-12T08:50:14.305Z,2.65
2023-03-12T08:52:42.711Z,3.20
2023-03-12T08:55:11.843Z,3.25
2023-03-12T08:57:40.735Z,3.35
2023-03-12T09:00:14.942Z,3.35
2023-03-12T09:02:46.719Z,2.80
2023-03-12T09:05:15.081Z,2.17
2023-03-12T09:07:43.122Z,2.50
2023-03-12T09:10:11.212Z,2.10
2023-03-12T09:12:39.216Z,2.42
2023-03-12T09:15:08.556Z,3.47
2023-03-12T09:17:37.099Z,5.90
2023-03-12T09:20:09.473Z,3.00
2023-03-12T09:22:38.124Z,3.15
2023-03-12T09:25:07.730Z,2.63
2023-03-12T09:27:40.215Z,3.00
2023-03-12T09:30:09.892Z,2.30
2023-03-12T09:32:37.856Z,2.00
2023-03-12T09:35:07.457Z,2.83
2023-03-12T09:37:35.986Z,2.13
2023-03-12T09:40:07.799Z,2.50
2023-03-12T09:42:47.593Z,3.75
2023-03-12T09:45:22.625Z,2.70
2023-03-12T09:47:55.527Z,3.40
2023-03-12T09:50:26.499Z,4.88
2023-03-12T09:52:58.379Z,9.55
2023-03-12T09:55:27.763Z,2.95
2023-03-12T09:57:56.806Z,6.60
2023-03-12T10:00:31.358Z,3.20
2023-03-12T10:03:08.371Z,3.25
2023-03-12T10:05:51.771Z,5.53
2023-03-12T10:08:32.538Z,4.25
2023-03-12T10:11:33.043Z,3.95
2023-03-12T10:14:23.494Z,4.10
2023-03-12T10:17:16.933Z,2.58
2023-03-12T10:19:53.670Z,3.20
2023-03-12T10:22:52.633Z,2.30
2023-03-12T10:25:29.408Z,3.03
2023-03-12T10:28:10.610Z,2.33
2023-03-12T10:30:42.758Z,2.17
2023-03-12T10:33:16.018Z,2.20
2023-03-12T10:35:44.167Z,2.47
2023-03-12T10:38:30.139Z,2.10
2023-03-12T10:43:25.953Z,2.72
2023-03-12T10:48:44.171Z,2.60
2023-03-12T10:51:13.656Z,2.45
2023-03-12T10:53:44.892Z,2.25
2023-03-12T10:56:14.998Z,2.88
2023-03-12T11:03:45.968Z,2.60
2023-03-12T11:06:27.401Z,3.83
2023-03-12T11:09:17.482Z,3.15
2023-03-12T11:11:48.508Z,4.30
2023-03-12T11:14:19.302Z,5.03
2023-03-12T11:16:48.037Z,2.90
2023-03-12T11:19:31.541Z,6.05
2023-03-12T11:22:00.761Z,5.22
2023-03-12T11:24:29.247Z,2.67
2023-03-12T11:27:07.716Z,2.35
2023-03-12T11:29:43.506Z,2.60
2023-03-12T11:32:30.214Z,2.60
2023-03-12T11:34:58.247Z,2.50
2023-03-12T11:37:44.317Z,2.78
2023-03-12T11:40:40.736Z,3.17
2023-03-12T11:43:43.362Z,3.53
2023-03-12T11:46:33.513Z,2.28
2023-03-12T11:49:26.374Z,2.10
2023-03-12T11:52:24.437Z,2.28
2023-03-12T11:55:12.375Z,2.20
2023-03-12T11:57:47.781Z,2.40
2023-03-12T12:00:27.640Z,2.70
2023-03-12T12:03:20.318Z,2.50
2023-03-12T12:05:54.853Z,2.70
2023-03-12T12:08:47.385Z,2.88
2023-03-12T12:11:34.195Z,3.95
2023-03-12T12:14:07.673Z,3.45
2023-03-12T12:17:02.047Z,3.33
2023-03-12T12:20:14.860Z,3.28
2023-03-12T12:23:04.342Z,2.03
2023-03-12T12:25:50.029Z,2.47
2023-03-12T12:28:54.040Z,2.95
2023-03-12T12:31:58.086Z,2.28
2023-03-12T12:34:56.226Z,2.10
2023-03-12T12:37:37.758Z,2.40
2023-03-12T12:40:23.651Z,2.38
2023-03-12T12:43:04.636Z,2.10
2023-03-12T12:45:32.661Z,2.70
2023-03-12T12:48:07.503Z,2.33
2023-03-12T12:50:39.967Z,2.20
2023-03-12T12:53:15.693Z,2.30
2023-03-12T12:56:06.712Z,2.40
2023-03-12T12:59:03.484Z,2.90
2023-03-12T13:01:34.850Z,2.90
2023-03-12T13:04:13.521Z,2.33
2023-03-12T13:06:54.863Z,2.67
2023-03-12T13:09:35.271Z,2.50
2023-03-12T13:12:29.613Z,2.40
2023-03-12T13:14:58.502Z,2.20
2023-03-12T13:17:30.242Z,2.72
2023-03-12T13:20:11.056Z,2.80
2023-03-12T13:23:09.376Z,2.40
2023-03-12T13:26:06.268Z,2.40
2023-03-12T13:29:12.993Z,2.53
2023-03-12T13:31:42.410Z,2.40
2023-03-12T13:34:18.869Z,3.35
2023-03-12T13:36:50.645Z,4.22
2023-03-12T13:39:34.018Z,3.97
2023-03-12T13:42:22.451Z,3.60
2023-03-12T13:44:51.167Z,8.18
2023-03-12T13:47:38.063Z,10.18
2023-03-12T13:50:25.202Z,5.75
2023-03-12T13:53:20.241Z,5.25
2023-03-12T13:56:00.771Z,13.80
2023-03-12T13:58:29.835Z,5.03
2023-03-12T14:01:14.533Z,4.10
2023-03-12T14:03:53.852Z,7.68
2023-03-12T14:06:24.846Z,2.35
2023-03-12T14:09:24.228Z,2.65
2023-03-12T14:12:20.499Z,2.63
2023-03-12T14:15:03.736Z,3.03
2023-03-12T14:17:34.599Z,2.73
2023-03-12T14:20:07.676Z,2.60
2023-03-12T14:22:38.759Z,3.00
2023-03-12T14:25:33.507Z,2.80
2023-03-12T14:28:04.448Z,2.85
2023-03-12T14:30:49.509Z,2.63
2023-03-12T14:33:18.360Z,2.65
2023-03-12T14:35:57.694Z,2.33
2023-03-12T14:38:32.842Z,2.70
2023-03-12T14:41:14.785Z,2.83
2023-03-12T14:43:43.805Z,2.53
2023-03-12T14:46:18.019Z,2.42
2023-03-12T14:48:49.759Z,3.28
2023-03-12T14:51:24.209Z,3.05
2023-03-12T14:53:53.508Z,2.95
2023-03-12T14:56:30.652Z,2.83
2023-03-12T14:59:01.708Z,2.67
2023-03-12T15:01:34.904Z,2.80
2023-03-12T15:04:14.732Z,3.08
2023-03-12T15:06:49.150Z,2.70
2023-03-12T15:09:20.360Z,3.15
2023-03-12T15:12:01.420Z,3.08
2023-03-12T15:14:38.935Z,2.97
2023-03-12T15:17:08.017Z,2.65
2023-03-12T15:19:40.270Z,3.05
2023-03-12T15:22:19.147Z,3.40
2023-03-12T15:24:47.869Z,3.13
2023-03-12T15:27:31.433Z,2.63
2023-03-12T15:30:01.067Z,3.00
2023-03-12T15:32:31.896Z,2.80
2023-03-12T15:35:11.727Z,3.13
2023-03-12T15:37:41.099Z,2.88
2023-03-12T15:40:21.648Z,2.88
2023-03-12T15:42:49.889Z,8.02
2023-03-12T15:45:24.051Z,5.68
2023-03-12T15:47:54.166Z,3.30
2023-03-12T15:50:23.843Z,3.10
2023-03-12T15:53:22.922Z,3.50
2023-03-12T15:56:02.841Z,3.55
2023-03-12T15:58:36.100Z,3.42
2023-03-12T16:01:12.896Z,3.72
2023-03-12T16:03:42.907Z,3.10
2023-03-12T16:06:18.440Z,3.45
2023-03-12T16:08:56.577Z,3.25
2023-03-12T16:11:28.562Z,3.22
2023-03-12T16:14:22.354Z,3.65
2023-03-12T16:16:51.374Z,3.92
2023-03-12T16:19:22.495Z,3.72
2023-03-12T16:21:50.774Z,4.65
2023-03-12T16:24:18.425Z,3.80
2023-03-12T16:26:53.792Z,4.50
2023-03-12T16:29:23.222Z,3.75
2023-03-12T16:31:55.788Z,3.95
2023-03-12T16:34:23.862Z,4.40
2023-03-12T16:36:52.127Z,4.25
2023-03-12T16:39:20.039Z,4.43
2023-03-12T16:41:48.226Z,4.20
2023-03-12T16:44:19.987Z,3.67
2023-03-12T16:46:48.315Z,3.75
2023-03-12T16:49:18.165Z,4.25
2023-03-12T16:51:46.443Z,4.38
2023-03-12T16:54:14.239Z,4.55
2023-03-12T16:56:46.344Z,3.85
2023-03-12T16:59:28.314Z,4.50
2023-03-12T17:01:56.860Z,4.75
2023-03-12T17:04:24.709Z,4.22
2023-03-12T17:06:52.737Z,4.70
2023-03-12T17:09:20.518Z,4.75
2023-03-12T17:11:51.123Z,5.28
2023-03-12T17:14:22.381Z,5.00
2023-03-12T17:16:51.747Z,5.38
2023-03-12T17:19:19.443Z,5.55
2023-03-12T17:21:48.429Z,5.70
2023-03-12T17:24:16.045Z,5.85
2023-03-12T17:26:45.521Z,5.93
2023-03-12T17:29:13.254Z,5.80
2023-03-12T17:31:41.183Z,6.20
2023-03-12T17:34:08.914Z,6.65
2023-03-12T17:36:38.055Z,7.10
2023-03-12T17:39:05.806Z,7.18
2023-03-12T17:41:34.236Z,6.82
2023-03-12T17:44:03.762Z,7.65
2023-03-12T17:46:32.231Z,6.28
2023-03-12T17:49:00.187Z,5.93
2023-03-12T17:51:28.101Z,6.22
2023-03-12T17:53:56.298Z,5.82
2023-03-12T17:56:24.434Z,6.60
2023-03-12T17:58:52.193Z,6.28
2023-03-12T18:01:20.154Z,6.28
2023-03-12T18:03:50.046Z,6.60
2023-03-12T18:06:19.761Z,5.88
2023-03-12T18:08:47.836Z,6.72
2023-03-12T18:11:16.238Z,6.05
2023-03-12T18:13:43.854Z,6.47
2023-03-12T18:16:11.859Z,6.75
2023-03-12T18:18:39.632Z,6.95
2023-03-12T18:21:07.675Z,6.72
2023-03-12T18:23:35.346Z,7.70
2023-03-12T18:26:04.104Z,8.07
2023-03-12T18:28:31.767Z,6.78
2023-03-12T18:30:59.765Z,7.97
2023-03-12T18:33:27.441Z,7.78
2023-03-12T18:35:55.515Z,7.20
2023-03-12T18:38:23.342Z,7.57
2023-03-12T18:40:51.410Z,7.88
2023-03-12T18:43:21.462Z,7.88
2023-03-12T18:45:50.675Z,9.15
2023-03-12T18:48:18.358Z,9.25
2023-03-12T18:50:46.302Z,8.85
2023-03-12T18:53:13.953Z,10.45
2023-03-12T18:55:42.060Z,10.77
2023-03-12T18:58:09.749Z,11.38
2023-03-12T19:00:37.788Z,12.82
2023-03-12T19:03:05.466Z,13.52
2023-03-12T19:05:33.553Z,13.43
2023-03-12T19:08:01.306Z,12.38
2023-03-12T19:10:29.319Z,11.98
2023-03-12T19:12:57.021Z,11.80
2023-03-12T19:15:25.081Z,10.63
2023-03-12T19:17:54.152Z,10.18
2023-03-12T19:20:22.506Z,10.43
2023-03-12T19:22:50.231Z,10.55
2023-03-12T19:25:18.288Z,10.57
2023-03-12T19:27:45.940Z,11.10
2023-03-12T19:30:14.494Z,9.98
2023-03-12T19:32:44.093Z,10.48
2023-03-12T19:35:14.157Z,10.65
2023-03-12T19:37:42.397Z,10.43
2023-03-12T19:40:11.058Z,10.60
2023-03-12T19:42:39.004Z,10.98
2023-03-12T19:45:07.392Z,10.38
2023-03-12T19:47:35.074Z,9.65
2023-03-12T19:50:03.149Z,10.48
2023-03-12T19:52:31.067Z,10.57
2023-03-12T19:55:04.673Z,10.13
2023-03-12T19:57:34.057Z,9.82
2023-03-12T20:00:02.197Z,10.00
2023-03-12T20:02:32.191Z,10.02
2023-03-12T20:05:00.376Z,10.23
2023-03-12T20:07:28.040Z,11.07
2023-03-12T20:09:56.089Z,11.02
2023-03-12T20:12:23.830Z,11.80
2023-03-12T20:14:51.794Z,11.23
2023-03-12T20:17:19.478Z,12.13
2023-03-12T20:19:47.396Z,11.70
2023-03-12T20:22:15.292Z,11.48
2023-03-12T20:24:43.192Z,12.50
2023-03-12T20:27:10.926Z,12.63
2023-03-12T20:29:39.176Z,13.45
2023-03-12T20:32:06.928Z,14.38
2023-03-12T20:34:34.919Z,14.43
2023-03-12T20:37:02.576Z,15.20
2023-03-12T20:39:30.580Z,17.33
2023-03-12T20:41:58.223Z,16.77
2023-03-12T20:44:26.194Z,17.17
2023-03-12T20:46:53.925Z,17.90
2023-03-12T20:49:21.917Z,17.00
2023-03-12T20:51:49.583Z,16.67
2023-03-12T20:54:17.575Z,16.20
2023-03-12T20:56:45.181Z,17.15
2023-03-12T20:59:13.390Z,17.67
2023-03-12T21:01:41.139Z,20.35
2023-03-12T21:04:09.337Z,26.73
2023-03-12T21:06:37.036Z,36.58
2023-03-12T21:09:05.057Z,38.25
2023-03-12T21:11:32.771Z,49.17
2023-03-12T21:14:00.724Z,39.78
2023-03-12T21:16:28.514Z,38.88
2023-03-12T21:18:58.114Z,36.78
2023-03-12T21:21:26.060Z,37.75
2023-03-12T21:23:53.995Z,35.42
2023-03-12T21:26:22.193Z,34.55
2023-03-12T21:28:50.189Z,28.90
2023-03-12T21:31:18.292Z,22.17
2023-03-12T21:33:46.273Z,23.48
2023-03-12T21:36:14.980Z,20.95
2023-03-12T21:38:43.453Z,20.10
2023-03-12T21:41:13.997Z,22.92
2023-03-12T21:43:42.575Z,24.02
2023-03-12T21:46:12.726Z,23.45
2023-03-12T21:48:43.162Z,24.10
2023-03-12T21:51:12.248Z,24.73
2023-03-12T21:53:40.807Z,24.60
2023-03-12T21:56:10.118Z,24.20
2023-03-12T21:58:38.157Z,25.20
2023-03-12T22:01:19.259Z,26.00
2023-03-12T22:03:47.877Z,26.35
2023-03-12T22:06:16.538Z,26.73
2023-03-12T22:08:46.991Z,28.23
2023-03-12T22:11:15.936Z,27.15
2023-03-12T22:13:43.949Z,25.73
2023-03-12T22:16:13.515Z,28.42
2023-03-12T22:18:44.337Z,26.60
2023-03-12T22:21:17.838Z,25.17
2023-03-12T22:23:52.286Z,23.52
2023-03-12T22:26:22.260Z,25.25
2023-03-12T22:28:57.256Z,22.48
2023-03-12T22:31:27.101Z,22.60
2023-03-12T22:33:56.169Z,19.55
2023-03-12T22:36:24.302Z,21.00
2023-03-12T22:38:52.407Z,21.20
2023-03-12T22:41:21.502Z,18.95
2023-03-12T22:43:51.304Z,18.35
2023-03-12T22:46:21.007Z,16.02
2023-03-12T22:48:54.070Z,16.13
2023-03-12T22:51:22.263Z,16.85
2023-03-12T22:53:50.378Z,15.75
2023-03-12T22:56:18.511Z,15.02
2023-03-12T22:58:47.617Z,14.60
2023-03-12T23:01:17.886Z,14.60
2023-03-12T23:03:47.214Z,14.43
2023-03-12T23:06:16.218Z,14.95
2023-03-12T23:08:46.309Z,14.93
2023-03-12T23:11:16.806Z,14.40
2023-03-12T23:13:45.888Z,14.43
2023-03-12T23:16:16.438Z,13.52
2023-03-12T23:18:48.389Z,14.10
2023-03-12T23:21:19.197Z,13.27
2023-03-12T23:23:48.283Z,13.80
2023-03-12T23:26:26.536Z,14.60
2023-03-12T23:28:59.010Z,14.57
2023-03-12T23:31:29.329Z,13.55
2023-03-12T23:33:58.473Z,14.32
2023-03-12T23:36:26.862Z,14.27
2023-03-12T23:38:54.832Z,13.50
2023-03-12T23:41:25.087Z,13.32
2023-03-12T23:43:53.724Z,13.73
2023-03-12T23:46:22.027Z,13.35
2023-03-12T23:48:50.620Z,14.38
2023-03-12T23:51:22.626Z,13.52
2023-03-12T23:53:54.680Z,14.52
2023-03-12T23:56:26.036Z,14.57
2023-03-12T23:58:54.843Z,14.70
